Time;durP1;ratioP1;P1;durP2;ratioP2;P2;SDS_P1;SDS_P2;PMS_P1;PMS_P2;Temp;Humidity;BMP_temperature;BMP_pressure;BME280_temperature;BME280_humidity;BME280_pressure;Samples;Min_cycle;Max_cycle;Signal;HPM_P1;HPM_P2
2021/03/08 00:02:10;;;;;;;21.48;15.65;;;1.20;65.60;;;;;;5031007;28;20286;-83
2021/03/08 00:04:36;;;;;;;19.75;15.38;;;1.20;66.50;;;;;;5049865;28;20196;-83
2021/03/08 00:07:03;;;;;;;17.70;14.88;;;1.00;66.60;;;;;;5049338;28;20206;-83
2021/03/08 00:09:30;;;;;;;19.50;14.80;;;1.00;67.20;;;;;;5029167;28;20209;-83
2021/03/08 00:11:57;;;;;;;21.00;15.00;;;1.00;66.50;;;;;;5030446;28;20243;-82
2021/03/08 00:14:24;;;;;;;20.05;15.43;;;1.00;65.80;;;;;;5044302;28;20204;-83
2021/03/08 00:16:51;;;;;;;17.00;13.98;;;1.10;65.80;;;;;;5050796;28;20207;-83
2021/03/08 00:19:17;;;;;;;19.15;14.55;;;1.00;65.50;;;;;;5049612;28;20211;-83
2021/03/08 00:21:46;;;;;;;16.92;13.85;;;1.00;66.20;;;;;;5042375;28;20227;-82
2021/03/08 00:24:13;;;;;;;22.48;14.38;;;0.80;66.30;;;;;;5046674;28;20664;-83
2021/03/08 00:26:40;;;;;;;19.08;15.35;;;0.80;67.10;;;;;;5051459;28;20203;-82
2021/03/08 00:29:07;;;;;;;22.13;15.40;;;0.90;66.80;;;;;;5047296;28;20211;-83
2021/03/08 00:31:33;;;;;;;16.88;13.27;;;0.90;66.70;;;;;;5041024;28;20193;-82
2021/03/08 00:34:00;;;;;;;18.45;13.55;;;0.80;66.10;;;;;;5043590;28;20200;-83
2021/03/08 00:36:26;;;;;;;18.98;15.38;;;0.80;66.90;;;;;;5046022;28;20242;-82
2021/03/08 00:38:52;;;;;;;21.02;14.10;;;0.70;67.10;;;;;;5044896;28;20211;-82
2021/03/08 00:41:19;;;;;;;18.48;15.38;;;0.60;66.90;;;;;;5030543;28;20254;-82
2021/03/08 00:43:45;;;;;;;21.35;14.60;;;0.50;66.70;;;;;;5041176;28;20223;-82
2021/03/08 00:46:12;;;;;;;18.35;14.15;;;0.40;66.40;;;;;;5050858;28;20207;-82
2021/03/08 00:48:39;;;;;;;18.20;12.95;;;0.10;66.10;;;;;;5042317;28;20265;-82
2021/03/08 00:51:05;;;;;;;18.42;14.02;;;0.10;68.20;;;;;;5049766;28;20199;-82
2021/03/08 00:53:32;;;;;;;18.83;13.88;;;0.30;68.80;;;;;;5038601;28;20205;-82
2021/03/08 00:55:58;;;;;;;20.98;14.43;;;0.30;68.20;;;;;;5030833;28;20208;-83
2021/03/08 00:58:24;;;;;;;17.95;12.80;;;0.30;68.00;;;;;;5039317;28;20571;-83
2021/03/08 01:00:51;;;;;;;17.27;14.75;;;0.20;68.20;;;;;;5030171;28;20256;-82
2021/03/08 01:03:19;;;;;;;27.83;15.68;;;0.30;68.40;;;;;;5035572;28;20241;-83
2021/03/08 01:05:45;;;;;;;18.50;14.25;;;0.30;67.30;;;;;;5046636;28;20193;-83
2021/03/08 01:08:11;;;;;;;18.42;14.40;;;0.30;66.90;;;;;;5038805;28;20219;-83
2021/03/08 01:10:38;;;;;;;24.63;14.70;;;0.30;67.00;;;;;;5046731;28;20200;-83
2021/03/08 01:13:05;;;;;;;18.10;13.57;;;0.50;66.60;;;;;;5035102;28;20200;-82
2021/03/08 01:15:31;;;;;;;17.98;14.50;;;0.50;65.60;;;;;;5049232;28;20271;-83
2021/03/08 01:17:58;;;;;;;17.33;13.60;;;0.50;65.80;;;;;;5042453;28;21205;-83
2021/03/08 01:20:25;;;;;;;15.43;12.90;;;0.40;65.60;;;;;;5031689;28;20240;-83
2021/03/08 01:22:52;;;;;;;18.52;13.98;;;0.30;66.10;;;;;;5048500;28;20225;-83
2021/03/08 01:25:22;;;;;;;19.60;12.07;;;0.20;66.20;;;;;;5045461;28;20199;-83
2021/03/08 01:27:48;;;;;;;14.32;11.70;;;0.10;66.30;;;;;;5060865;28;20691;-83
2021/03/08 01:30:18;;;;;;;18.90;13.25;;;0.20;66.60;;;;;;5054381;28;20692;-83
2021/03/08 01:32:44;;;;;;;15.23;11.73;;;0.20;66.50;;;;;;5050144;28;20207;-83
2021/03/08 01:35:11;;;;;;;15.95;12.50;;;0.20;66.30;;;;;;5053745;28;20215;-83
2021/03/08 01:37:39;;;;;;;18.20;14.68;;;0.10;65.60;;;;;;5037293;28;20200;-83
2021/03/08 01:40:08;;;;;;;16.55;12.55;;;0.30;65.80;;;;;;5042814;28;20204;-83
2021/03/08 01:42:34;;;;;;;17.73;13.07;;;0.20;65.50;;;;;;5043744;28;20224;-83
2021/03/08 01:45:01;;;;;;;16.35;10.55;;;0.10;64.90;;;;;;5034272;28;20205;-83
2021/03/08 01:47:27;;;;;;;13.65;11.18;;;0.10;64.50;;;;;;5036339;28;20188;-83
2021/03/08 01:49:54;;;;;;;15.90;12.48;;;0.10;64.90;;;;;;5053669;28;20231;-83
2021/03/08 01:52:20;;;;;;;14.82;12.05;;;0.00;65.00;;;;;;5037686;28;20204;-83
2021/03/08 01:54:48;;;;;;;14.70;11.75;;;-0.10;64.90;;;;;;5041224;28;20212;-83
2021/03/08 01:57:14;;;;;;;12.70;11.40;;;-0.10;65.10;;;;;;5053028;28;20278;-83
2021/03/08 01:59:42;;;;;;;12.98;11.65;;;0.10;65.00;;;;;;5039362;28;20204;-83
2021/03/08 02:02:08;;;;;;;14.55;11.88;;;0.10;64.50;;;;;;5032593;28;20248;-83
2021/03/08 02:04:35;;;;;;;14.65;12.57;;;0.20;64.10;;;;;;5036000;28;20626;-82
2021/03/08 02:07:04;;;;;;;15.55;12.10;;;0.40;64.70;;;;;;5037654;28;20196;-83
2021/03/08 02:09:31;;;;;;;15.20;11.68;;;0.40;63.90;;;;;;5048829;28;20219;-83
2021/03/08 02:12:07;;;;;;;12.32;10.88;;;0.50;63.10;;;;;;5051008;28;20213;-83
2021/03/08 02:14:48;;;;;;;14.77;10.70;;;0.60;62.50;;;;;;5034709;28;20235;-83
2021/03/08 02:17:21;;;;;;;13.50;10.98;;;0.50;61.70;;;;;;5047202;28;20202;-83
2021/03/08 02:20:14;;;;;;;13.73;10.77;;;0.50;61.90;;;;;;5050967;28;20241;-83
2021/03/08 02:23:14;;;;;;;14.40;11.32;;;0.40;62.30;;;;;;5049609;28;20223;-83
2021/03/08 02:26:10;;;;;;;15.95;11.63;;;0.40;61.80;;;;;;5032550;28;20205;-83
2021/03/08 02:28:56;;;;;;;14.38;12.55;;;0.30;62.20;;;;;;5033865;28;20200;-83
2021/03/08 02:31:26;;;;;;;19.95;13.30;;;0.20;63.30;;;;;;5032870;28;20639;-83
2021/03/08 02:33:58;;;;;;;14.60;11.98;;;0.00;63.80;;;;;;5033227;28;20639;-82
2021/03/08 02:36:31;;;;;;;17.30;12.25;;;0.00;64.40;;;;;;5042437;28;20722;-82
2021/03/08 02:39:03;;;;;;;16.40;11.98;;;-0.10;64.50;;;;;;5042283;28;20296;-82
2021/03/08 02:41:32;;;;;;;17.30;11.73;;;-0.20;64.70;;;;;;5052600;28;20704;-83
2021/03/08 02:44:04;;;;;;;14.93;12.02;;;-0.10;64.90;;;;;;5040693;28;20235;-83
2021/03/08 02:46:36;;;;;;;15.45;12.18;;;0.00;64.80;;;;;;5042783;28;20482;-83
2021/03/08 02:49:07;;;;;;;15.02;11.88;;;0.10;64.70;;;;;;5051001;28;20596;-83
2021/03/08 02:51:46;;;;;;;14.00;12.35;;;0.10;64.70;;;;;;5053023;28;20205;-83
2021/03/08 02:54:16;;;;;;;15.68;13.30;;;0.50;64.70;;;;;;5053561;28;20200;-83
2021/03/08 02:56:46;;;;;;;15.95;13.25;;;0.60;64.50;;;;;;5066359;28;20203;-83
2021/03/08 02:59:15;;;;;;;18.05;13.55;;;0.50;63.30;;;;;;5052870;28;20208;-83
2021/03/08 03:01:44;;;;;;;14.80;12.57;;;0.40;63.40;;;;;;5042318;28;20297;-83
2021/03/08 03:04:12;;;;;;;15.10;12.95;;;0.30;63.60;;;;;;5037379;28;20215;-83
2021/03/08 03:06:42;;;;;;;16.70;12.77;;;0.20;64.00;;;;;;5044635;28;20199;-83
2021/03/08 03:09:13;;;;;;;14.23;12.65;;;0.10;64.50;;;;;;5055768;28;20210;-83
2021/03/08 03:11:42;;;;;;;14.18;12.40;;;0.00;64.40;;;;;;5030764;28;20721;-83
2021/03/08 03:14:11;;;;;;;17.15;13.45;;;0.00;64.40;;;;;;5031758;28;20216;-83
2021/03/08 03:16:39;;;;;;;17.05;12.50;;;-0.10;64.90;;;;;;5040882;28;20211;-83
2021/03/08 03:19:09;;;;;;;25.65;13.60;;;-0.10;65.50;;;;;;5034844;28;20211;-82
2021/03/08 03:21:37;;;;;;;18.52;13.02;;;0.00;66.00;;;;;;5036152;28;20212;-83
2021/03/08 03:24:07;;;;;;;15.32;12.23;;;-0.20;65.70;;;;;;5042371;28;20298;-83
2021/03/08 03:26:34;;;;;;;19.50;12.93;;;-0.40;65.50;;;;;;5053013;28;20224;-82
2021/03/08 03:29:03;;;;;;;19.58;13.60;;;-0.40;66.10;;;;;;5037103;28;20530;-83
2021/03/08 03:31:31;;;;;;;19.27;13.80;;;-0.30;66.70;;;;;;5038011;28;20561;-82
2021/03/08 03:33:58;;;;;;;17.98;13.10;;;-0.20;67.20;;;;;;5035890;28;20670;-82
2021/03/08 03:36:28;;;;;;;20.92;15.55;;;-0.10;67.00;;;;;;5038659;28;20192;-83
2021/03/08 03:38:56;;;;;;;19.88;15.27;;;-0.10;66.40;;;;;;5038578;28;20543;-82
2021/03/08 03:41:23;;;;;;;15.70;12.77;;;-0.40;66.10;;;;;;5037974;28;20258;-83
2021/03/08 03:43:51;;;;;;;18.48;12.98;;;-0.60;66.40;;;;;;5036532;28;20646;-82
2021/03/08 03:46:17;;;;;;;17.85;13.90;;;-0.50;67.80;;;;;;5036401;28;20204;-83
2021/03/08 03:48:43;;;;;;;18.55;14.13;;;-0.40;67.30;;;;;;5039604;28;20204;-83
2021/03/08 03:51:10;;;;;;;18.45;14.40;;;-0.40;67.10;;;;;;5048671;28;20192;-83
2021/03/08 03:53:38;;;;;;;16.67;13.32;;;-0.50;67.10;;;;;;5039425;28;20197;-82
2021/03/08 03:56:06;;;;;;;19.13;14.65;;;-0.50;67.00;;;;;;5030920;28;20208;-83
2021/03/08 03:58:40;;;;;;;18.85;13.75;;;-0.50;66.90;;;;;;5034399;28;20803;-82
2021/03/08 04:01:09;;;;;;;14.85;12.88;;;-0.30;67.90;;;;;;5058250;28;20204;-82
2021/03/08 04:03:42;;;;;;;19.10;14.55;;;-0.50;67.90;;;;;;5048381;28;20537;-83
2021/03/08 04:06:10;;;;;;;18.95;15.10;;;-0.60;67.90;;;;;;5044218;28;20193;-83
2021/03/08 04:08:44;;;;;;;18.15;14.77;;;-0.80;68.10;;;;;;5039580;28;20196;-82
2021/03/08 04:11:13;;;;;;;18.65;13.75;;;-0.80;69.20;;;;;;5048688;28;20202;-82
2021/03/08 04:13:40;;;;;;;16.35;13.75;;;-0.60;69.60;;;;;;5044428;28;20611;-82
2021/03/08 04:16:08;;;;;;;18.05;14.45;;;-0.30;69.30;;;;;;5030296;28;20201;-83
2021/03/08 04:18:37;;;;;;;16.40;12.82;;;-0.40;67.90;;;;;;5035374;28;20576;-83
2021/03/08 04:21:04;;;;;;;19.75;14.75;;;-0.50;68.00;;;;;;5030703;28;20227;-83
2021/03/08 04:23:33;;;;;;;17.10;14.55;;;-0.70;68.50;;;;;;5041873;28;20215;-84
2021/03/08 04:26:01;;;;;;;18.88;14.68;;;-0.80;69.40;;;;;;5038788;28;20209;-83
2021/03/08 04:28:29;;;;;;;17.77;13.98;;;-0.40;70.00;;;;;;5040856;28;20258;-82
2021/03/08 04:30:56;;;;;;;17.05;13.35;;;-0.80;68.60;;;;;;5048325;28;20195;-83
2021/03/08 04:33:23;;;;;;;17.80;13.75;;;-0.60;69.50;;;;;;5049953;28;20238;-83
2021/03/08 04:35:50;;;;;;;20.52;15.65;;;-0.60;69.20;;;;;;5031338;28;20555;-83
2021/03/08 04:38:17;;;;;;;18.83;15.13;;;-0.70;69.40;;;;;;5039015;28;20227;-82
2021/03/08 04:40:44;;;;;;;18.02;14.20;;;-0.60;69.60;;;;;;5047461;28;21052;-82
2021/03/08 04:43:11;;;;;;;18.73;14.45;;;-0.80;69.00;;;;;;5036686;28;20196;-83
2021/03/08 04:45:38;;;;;;;20.40;14.60;;;-1.00;69.50;;;;;;5049117;28;20204;-83
2021/03/08 04:48:06;;;;;;;19.33;14.85;;;-1.20;70.10;;;;;;5038548;28;20330;-82
2021/03/08 04:50:33;;;;;;;21.02;15.27;;;-1.10;71.30;;;;;;5049027;28;20204;-83
2021/03/08 04:53:00;;;;;;;24.20;16.20;;;-1.20;71.10;;;;;;5035439;28;20188;-84
2021/03/08 04:55:29;;;;;;;19.65;15.77;;;-1.30;71.80;;;;;;5032746;28;20200;-83
2021/03/08 04:57:56;;;;;;;22.27;15.40;;;-1.40;71.50;;;;;;5038724;28;20195;-82
2021/03/08 05:00:24;;;;;;;22.33;15.40;;;-1.50;71.90;;;;;;5056347;28;20210;-83
2021/03/08 05:02:53;;;;;;;17.75;13.63;;;-1.60;72.80;;;;;;5064098;28;20608;-83
2021/03/08 05:05:22;;;;;;;18.38;15.27;;;-1.60;73.70;;;;;;5033938;28;20575;-82
2021/03/08 05:07:51;;;;;;;19.45;14.80;;;-1.60;73.80;;;;;;5039215;28;20200;-82
2021/03/08 05:10:20;;;;;;;19.33;13.60;;;-1.60;73.80;;;;;;5039836;28;20201;-83
2021/03/08 05:12:49;;;;;;;21.67;15.68;;;-1.60;74.20;;;;;;5036074;28;20208;-82
2021/03/08 05:15:16;;;;;;;19.90;14.32;;;-1.50;75.00;;;;;;5053337;28;20211;-82
2021/03/08 05:17:45;;;;;;;24.33;15.73;;;-1.60;74.60;;;;;;5051166;28;20208;-82
2021/03/08 05:20:15;;;;;;;21.77;16.80;;;-1.60;75.40;;;;;;5033625;28;20209;-83
2021/03/08 05:22:42;;;;;;;20.85;15.38;;;-1.70;75.80;;;;;;5034009;28;20228;-84
2021/03/08 05:25:10;;;;;;;17.10;15.20;;;-1.70;76.20;;;;;;5049677;28;20216;-82
2021/03/08 05:27:39;;;;;;;23.33;16.17;;;-1.50;76.40;;;;;;5051531;28;20278;-83
2021/03/08 05:30:07;;;;;;;25.38;16.98;;;-1.40;76.20;;;;;;5053550;28;20219;-84
2021/03/08 05:32:36;;;;;;;20.48;15.77;;;-1.40;76.00;;;;;;5051292;28;20207;-86
2021/03/08 05:35:04;;;;;;;28.30;17.02;;;-1.30;75.80;;;;;;5033747;28;20276;-86
2021/03/08 05:37:31;;;;;;;21.42;15.73;;;-1.10;75.90;;;;;;5047576;28;20204;-86
2021/03/08 05:40:01;;;;;;;20.58;15.27;;;-1.20;75.50;;;;;;5033581;28;20205;-86
2021/03/08 05:42:33;;;;;;;22.02;15.07;;;-1.40;75.00;;;;;;5042964;28;20224;-86
2021/03/08 05:45:02;;;;;;;16.52;14.38;;;-1.40;75.60;;;;;;5033528;28;20662;-86
2021/03/08 05:48:20;;;;;;;24.60;17.52;;;-1.40;75.80;;;;;;5033974;28;20594;-87
2021/03/08 05:51:24;;;;;;;21.38;16.90;;;-1.30;76.00;;;;;;5038221;28;20196;-87
2021/03/08 05:54:11;;;;;;;23.15;16.33;;;-1.40;76.00;;;;;;5051253;28;20199;-87
2021/03/08 05:56:49;;;;;;;19.42;15.77;;;-1.50;76.40;;;;;;5032980;28;20264;-86
2021/03/08 05:59:33;;;;;;;24.45;15.57;;;-1.40;77.20;;;;;;5036586;28;20243;-87
2021/03/08 06:02:05;;;;;;;24.33;17.75;;;-1.30;77.30;;;;;;5072349;28;20215;-86
2021/03/08 06:05:06;;;;;;;23.58;16.33;;;-1.10;76.60;;;;;;5031657;28;20200;-86
2021/03/08 06:08:26;;;;;;;22.58;18.13;;;-1.20;76.30;;;;;;5026954;28;20208;-87
2021/03/08 06:11:06;;;;;;;23.42;15.88;;;-1.10;76.00;;;;;;4970980;28;20221;-86
2021/03/08 06:13:40;;;;;;;20.85;16.55;;;-1.00;75.00;;;;;;4986886;28;20293;-87
2021/03/08 06:16:10;;;;;;;23.52;16.00;;;-0.90;75.00;;;;;;5035584;28;20207;-87
2021/03/08 06:18:46;;;;;;;25.38;19.88;;;-0.80;74.20;;;;;;5051418;28;20737;-86
2021/03/08 06:21:14;;;;;;;22.45;18.20;;;-0.90;74.10;;;;;;5049737;28;20220;-87
2021/03/08 06:23:43;;;;;;;29.23;18.52;;;-1.10;74.00;;;;;;5049102;28;20208;-86
2021/03/08 06:26:11;;;;;;;20.80;17.92;;;-1.20;74.80;;;;;;5032061;28;20204;-86
2021/03/08 06:28:38;;;;;;;24.48;18.27;;;-1.30;75.20;;;;;;5033885;28;20208;-87
2021/03/08 06:31:06;;;;;;;24.30;18.95;;;-1.20;75.80;;;;;;5041564;28;20703;-87
2021/03/08 06:33:33;;;;;;;22.60;18.08;;;-1.20;76.50;;;;;;5034027;28;20213;-87
2021/03/08 06:36:01;;;;;;;20.52;17.75;;;-1.10;76.50;;;;;;5036765;28;20207;-87
2021/03/08 06:38:28;;;;;;;25.15;17.30;;;-1.10;76.90;;;;;;5043024;28;20200;-88
2021/03/08 06:40:56;;;;;;;24.17;17.98;;;-1.00;77.30;;;;;;5044371;28;20192;-87
2021/03/08 06:43:25;;;;;;;30.55;18.88;;;-0.70;77.30;;;;;;5043862;28;20666;-88
2021/03/08 06:45:52;;;;;;;26.45;19.70;;;-0.40;76.20;;;;;;5034422;28;20215;-88
2021/03/08 06:48:18;;;;;;;23.45;18.35;;;-0.10;74.90;;;;;;5035157;28;20604;-88
2021/03/08 06:50:45;;;;;;;24.70;17.52;;;0.00;73.70;;;;;;5039444;28;20201;-87
2021/03/08 06:53:11;;;;;;;24.45;18.38;;;0.20;73.20;;;;;;5032243;28;20200;-87
2021/03/08 06:55:38;;;;;;;23.63;17.42;;;0.20;72.80;;;;;;5033217;28;20232;-87
2021/03/08 06:58:18;;;;;;;24.60;17.45;;;0.20;73.00;;;;;;5038054;28;20196;-88
2021/03/08 07:00:45;;;;;;;25.13;17.77;;;-0.10;73.20;;;;;;5050508;28;20709;-87
2021/03/08 07:03:33;;;;;;;26.75;17.67;;;0.00;73.60;;;;;;5047514;28;20224;-88
2021/03/08 07:06:17;;;;;;;25.85;18.23;;;-0.20;74.50;;;;;;5030658;28;20209;-87
2021/03/08 07:08:45;;;;;;;27.50;19.70;;;-0.20;75.10;;;;;;5032159;28;20251;-88
2021/03/08 07:11:20;;;;;;;32.58;17.45;;;-0.10;75.40;;;;;;5031899;28;20235;-88
2021/03/08 07:13:47;;;;;;;22.52;17.65;;;0.00;75.00;;;;;;5032201;28;20200;-87
2021/03/08 07:16:14;;;;;;;24.17;18.17;;;0.20;74.70;;;;;;5032273;28;20199;-87
2021/03/08 07:18:42;;;;;;;24.92;19.10;;;0.40;74.30;;;;;;5031164;28;20223;-88
2021/03/08 07:21:15;;;;;;;22.75;18.30;;;0.50;74.10;;;;;;5048983;28;20212;-87
2021/03/08 07:23:42;;;;;;;25.83;19.10;;;0.60;73.70;;;;;;5050461;28;20222;-87
2021/03/08 07:26:10;;;;;;;25.25;19.15;;;0.90;73.80;;;;;;5033741;28;20663;-86
2021/03/08 07:28:37;;;;;;;22.25;17.35;;;1.20;73.80;;;;;;5042000;28;20204;-87
2021/03/08 07:31:03;;;;;;;21.88;16.80;;;1.50;72.20;;;;;;5033597;28;20197;-87
2021/03/08 07:33:31;;;;;;;28.02;18.90;;;1.70;71.30;;;;;;5032166;28;20220;-87
2021/03/08 07:35:59;;;;;;;22.88;17.83;;;1.90;70.60;;;;;;5048719;28;20198;-87
2021/03/08 07:38:37;;;;;;;21.95;18.23;;;1.90;69.80;;;;;;5046888;28;20214;-88
2021/03/08 07:41:12;;;;;;;27.13;20.00;;;2.10;69.50;;;;;;5052537;28;20218;-86
2021/03/08 07:43:39;;;;;;;24.55;18.70;;;2.30;69.30;;;;;;5061529;28;20217;-87
2021/03/08 07:46:06;;;;;;;25.48;18.35;;;2.30;68.70;;;;;;5061484;28;20252;-87
2021/03/08 07:48:33;;;;;;;26.30;19.65;;;2.40;68.00;;;;;;5064725;28;20199;-88
2021/03/08 07:51:07;;;;;;;23.80;16.35;;;2.50;67.60;;;;;;5059807;28;20237;-88
2021/03/08 07:53:36;;;;;;;20.33;18.23;;;2.70;67.70;;;;;;5067414;28;20227;-87
2021/03/08 07:56:07;;;;;;;20.95;18.05;;;2.60;66.60;;;;;;5039633;28;20323;-88
2021/03/08 07:58:35;;;;;;;24.45;18.48;;;2.70;67.00;;;;;;5071112;28;20202;-87
2021/03/08 08:01:02;;;;;;;22.38;17.23;;;2.30;66.10;;;;;;5055475;28;20262;-87
2021/03/08 08:03:29;;;;;;;21.17;17.90;;;2.20;67.10;;;;;;5064521;28;20199;-87
2021/03/08 08:06:00;;;;;;;27.30;20.02;;;1.90;66.70;;;;;;5040960;28;20822;-87
2021/03/08 08:08:29;;;;;;;24.27;19.58;;;2.10;68.50;;;;;;5030668;28;20205;-86
2021/03/08 08:10:57;;;;;;;26.77;19.33;;;1.80;68.10;;;;;;5043315;28;20231;-87
2021/03/08 08:13:28;;;;;;;23.40;18.92;;;1.90;69.10;;;;;;5050010;28;20236;-87
2021/03/08 08:15:56;;;;;;;24.63;18.23;;;1.50;68.80;;;;;;5031882;28;20219;-86
2021/03/08 08:18:24;;;;;;;26.50;19.65;;;1.50;70.60;;;;;;5030613;28;20196;-87
2021/03/08 08:20:52;;;;;;;26.25;19.88;;;1.50;71.20;;;;;;5041219;28;20207;-87
2021/03/08 08:23:26;;;;;;;28.98;20.15;;;1.60;71.60;;;;;;5050058;28;20224;-86
2021/03/08 08:26:20;;;;;;;25.90;19.58;;;1.60;71.30;;;;;;5052197;28;20191;-87
2021/03/08 08:28:53;;;;;;;25.50;20.02;;;2.00;71.70;;;;;;5054713;28;20283;-86
2021/03/08 08:31:20;;;;;;;24.85;19.20;;;2.00;70.10;;;;;;5050669;28;20203;-86
2021/03/08 08:33:46;;;;;;;24.15;19.75;;;2.10;69.50;;;;;;5071379;28;20200;-86
2021/03/08 08:36:15;;;;;;;24.70;18.80;;;2.40;69.80;;;;;;5063029;28;20591;-87
2021/03/08 08:39:04;;;;;;;29.45;20.73;;;2.70;69.20;;;;;;5063119;28;20212;-87
2021/03/08 08:41:32;;;;;;;26.10;20.45;;;2.90;68.40;;;;;;5050575;28;20314;-87
2021/03/08 08:44:36;;;;;;;28.90;19.88;;;3.20;67.90;;;;;;5069858;28;20529;-87
2021/03/08 08:47:26;;;;;;;27.75;21.30;;;3.00;66.10;;;;;;5061650;28;20291;-86
2021/03/08 08:49:56;;;;;;;24.35;19.35;;;2.90;66.40;;;;;;5061702;28;20191;-87
2021/03/08 08:52:51;;;;;;;29.58;20.38;;;3.20;67.10;;;;;;5063832;28;20249;-87
2021/03/08 08:55:21;;;;;;;26.17;19.58;;;2.80;64.80;;;;;;5061762;28;20663;-87
2021/03/08 08:58:37;;;;;;;30.35;19.48;;;2.90;66.60;;;;;;5069157;28;20255;-87
2021/03/08 09:04:07;;;;;;;27.75;18.52;;;2.80;65.80;;;;;;5051567;28;20203;-87
2021/03/08 09:06:54;;;;;;;20.85;17.50;;;2.90;66.00;;;;;;5064576;28;20199;-87
2021/03/08 09:09:23;;;;;;;31.70;18.65;;;2.70;65.80;;;;;;5054629;28;20286;-88
2021/03/08 09:11:54;;;;;;;20.67;16.90;;;2.90;66.00;;;;;;5040889;28;20187;-87
2021/03/08 09:14:57;;;;;;;27.02;18.75;;;3.00;65.00;;;;;;5067512;28;20231;-88
2021/03/08 09:17:26;;;;;;;19.42;16.20;;;2.90;66.00;;;;;;4974509;28;20237;-86
2021/03/08 09:20:21;;;;;;;19.77;17.00;;;3.30;65.50;;;;;;5037613;28;20295;-86
2021/03/08 09:22:49;;;;;;;23.45;17.95;;;3.30;64.40;;;;;;5070129;28;20722;-88
2021/03/08 09:25:23;;;;;;;21.20;17.17;;;3.20;63.80;;;;;;5059676;28;20543;-87
2021/03/08 09:28:05;;;;;;;22.13;16.90;;;2.90;64.80;;;;;;5061950;28;20608;-87
2021/03/08 09:30:35;;;;;;;22.30;18.40;;;3.10;64.60;;;;;;5043436;28;20204;-88
2021/03/08 09:33:02;;;;;;;24.42;17.20;;;3.20;64.90;;;;;;5032369;28;20791;-87
2021/03/08 09:35:31;;;;;;;21.05;17.40;;;3.70;64.50;;;;;;5036051;28;20197;-87
2021/03/08 09:38:00;;;;;;;18.77;16.70;;;4.10;64.40;;;;;;5053453;28;20200;-88
2021/03/08 09:40:28;;;;;;;22.35;18.23;;;3.90;63.20;;;;;;5046134;28;20245;-87
2021/03/08 09:42:57;;;;;;;19.20;17.05;;;3.70;61.80;;;;;;5052987;28;20215;-87
2021/03/08 09:45:27;;;;;;;21.08;17.15;;;3.70;62.20;;;;;;5038444;28;20211;-87
2021/03/08 09:47:54;;;;;;;20.75;17.33;;;3.70;62.40;;;;;;5033681;28;20208;-88
2021/03/08 09:50:32;;;;;;;20.10;17.25;;;4.00;62.40;;;;;;5042248;28;20199;-87
2021/03/08 09:52:59;;;;;;;22.45;17.08;;;4.30;62.40;;;;;;5033137;28;20818;-87
2021/03/08 09:55:27;;;;;;;21.90;17.17;;;3.80;59.90;;;;;;5040678;28;20259;-88
2021/03/08 09:57:54;;;;;;;19.80;17.15;;;3.70;61.00;;;;;;5032657;28;20692;-87
2021/03/08 10:00:24;;;;;;;23.30;16.85;;;4.20;62.80;;;;;;5050549;28;20188;-88
2021/03/08 10:03:00;;;;;;;20.17;17.98;;;4.50;61.00;;;;;;5040532;28;20686;-87
2021/03/08 10:05:42;;;;;;;23.65;17.70;;;4.90;60.80;;;;;;5040221;28;20701;-88
2021/03/08 10:08:09;;;;;;;19.10;16.83;;;4.90;59.30;;;;;;5032574;28;20204;-86
2021/03/08 10:10:41;;;;;;;24.15;17.42;;;4.70;59.00;;;;;;5041252;28;20593;-87
2021/03/08 10:13:08;;;;;;;20.75;17.23;;;5.10;59.80;;;;;;5052666;28;20211;-88
2021/03/08 10:15:44;;;;;;;23.27;15.77;;;5.00;59.10;;;;;;5043579;28;20565;-88
2021/03/08 10:18:12;;;;;;;22.45;17.30;;;5.00;59.90;;;;;;5052467;28;20211;-88
2021/03/08 10:20:46;;;;;;;16.85;15.05;;;4.50;59.20;;;;;;5041712;28;20203;-87
2021/03/08 10:23:18;;;;;;;19.85;15.43;;;4.80;60.10;;;;;;5052326;28;20227;-87
2021/03/08 10:25:45;;;;;;;16.25;14.55;;;4.70;59.00;;;;;;5049807;28;20208;-88
2021/03/08 10:28:13;;;;;;;19.23;16.00;;;4.80;59.50;;;;;;5048197;28;20215;-88
2021/03/08 10:30:39;;;;;;;17.92;15.27;;;4.70;58.60;;;;;;5037289;28;20201;-87
2021/03/08 10:33:09;;;;;;;17.75;15.85;;;4.70;59.10;;;;;;5031975;28;20566;-87
2021/03/08 10:35:39;;;;;;;20.83;15.65;;;5.10;59.30;;;;;;5038428;28;20209;-88
2021/03/08 10:38:06;;;;;;;22.67;16.25;;;5.40;59.10;;;;;;5052461;28;20204;-87
2021/03/08 10:40:34;;;;;;;17.30;15.50;;;5.20;58.00;;;;;;5049114;28;20199;-86
2021/03/08 10:43:01;;;;;;;18.38;13.90;;;4.60;58.60;;;;;;5051771;28;20735;-87
2021/03/08 10:45:28;;;;;;;17.45;14.43;;;4.60;58.60;;;;;;5046554;28;20861;-87
2021/03/08 10:48:05;;;;;;;17.75;13.15;;;5.00;58.90;;;;;;5051830;28;21091;-87
2021/03/08 10:50:44;;;;;;;13.25;11.90;;;4.70;57.90;;;;;;5043591;28;20206;-88
2021/03/08 10:53:11;;;;;;;17.67;13.13;;;4.40;57.00;;;;;;5050968;28;20203;-86
2021/03/08 10:55:39;;;;;;;15.77;13.73;;;4.80;58.00;;;;;;5043974;28;20234;-86
2021/03/08 10:58:05;;;;;;;15.00;13.13;;;4.90;57.30;;;;;;5051298;28;20647;-87
2021/03/08 11:00:35;;;;;;;14.65;12.23;;;4.80;57.00;;;;;;5047889;28;20192;-87
2021/03/08 11:03:01;;;;;;;18.98;12.02;;;5.00;57.50;;;;;;5037487;28;20228;-87
2021/03/08 11:05:29;;;;;;;15.10;11.98;;;5.50;56.80;;;;;;5037173;28;20208;-87
2021/03/08 11:07:57;;;;;;;18.27;12.15;;;5.60;55.20;;;;;;5039674;28;20260;-86
2021/03/08 11:10:38;;;;;;;17.15;12.40;;;5.20;56.40;;;;;;5046315;28;20379;-86
2021/03/08 11:13:06;;;;;;;12.27;10.93;;;5.50;55.80;;;;;;5059950;28;20241;-86
2021/03/08 11:15:33;;;;;;;16.88;13.20;;;5.40;55.10;;;;;;5060753;28;20196;-87
2021/03/08 11:18:00;;;;;;;19.90;12.05;;;5.20;54.80;;;;;;5059199;28;20641;-87
2021/03/08 11:20:30;;;;;;;15.05;11.98;;;5.30;55.80;;;;;;5059129;28;20557;-86
2021/03/08 11:23:00;;;;;;;13.45;12.07;;;5.10;55.30;;;;;;5056489;28;20219;-87
2021/03/08 11:25:38;;;;;;;14.52;11.00;;;5.60;55.90;;;;;;5057315;28;20199;-86
2021/03/08 11:28:07;;;;;;;14.23;11.27;;;5.40;54.30;;;;;;5054937;28;20200;-86
2021/03/08 11:30:35;;;;;;;12.30;11.00;;;5.40;54.50;;;;;;5046448;28;20746;-86
2021/03/08 11:33:02;;;;;;;13.05;11.75;;;5.20;54.10;;;;;;5033506;28;20196;-87
2021/03/08 11:35:32;;;;;;;11.95;10.65;;;5.60;54.90;;;;;;5061661;28;20357;-87
2021/03/08 11:38:03;;;;;;;13.50;11.40;;;6.10;54.90;;;;;;5050577;28;20250;-87
2021/03/08 11:40:31;;;;;;;13.93;12.52;;;6.50;53.70;;;;;;5051200;28;20638;-86
2021/03/08 11:42:59;;;;;;;14.20;12.23;;;6.60;53.50;;;;;;5049392;28;20215;-86
2021/03/08 11:45:26;;;;;;;13.57;12.18;;;6.80;53.20;;;;;;5050582;28;20196;-87
2021/03/08 11:47:55;;;;;;;17.20;12.13;;;6.90;52.70;;;;;;5050634;28;20226;-87
2021/03/08 11:50:23;;;;;;;14.65;13.10;;;6.80;51.80;;;;;;5030794;28;20200;-87
2021/03/08 11:52:50;;;;;;;14.63;12.30;;;6.70;51.70;;;;;;5029924;28;20207;-87
2021/03/08 11:55:19;;;;;;;23.08;13.80;;;6.90;53.10;;;;;;5033827;28;20692;-87
2021/03/08 11:57:46;;;;;;;14.32;12.82;;;7.10;52.50;;;;;;5050252;28;20195;-86
2021/03/08 12:00:14;;;;;;;13.50;12.10;;;6.40;52.40;;;;;;5055296;28;20252;-86
2021/03/08 12:02:42;;;;;;;14.35;12.23;;;6.70;53.20;;;;;;5058735;28;20216;-86
2021/03/08 12:05:10;;;;;;;14.82;12.98;;;7.10;52.90;;;;;;5037076;28;20196;-86
2021/03/08 12:07:37;;;;;;;15.45;12.63;;;7.00;51.30;;;;;;5030746;28;20201;-87
2021/03/08 12:10:04;;;;;;;17.33;12.80;;;6.40;51.80;;;;;;5030317;28;20201;-86
2021/03/08 12:12:32;;;;;;;17.17;13.75;;;6.50;53.10;;;;;;5030448;28;20208;-86
2021/03/08 12:14:58;;;;;;;17.88;13.07;;;6.60;52.80;;;;;;5030122;28;20254;-87
2021/03/08 12:17:25;;;;;;;16.80;14.52;;;6.90;53.10;;;;;;5030347;28;20205;-86
2021/03/08 12:19:51;;;;;;;15.80;12.60;;;7.10;52.40;;;;;;5039780;28;20266;-86
2021/03/08 12:22:18;;;;;;;16.48;14.25;;;7.30;52.30;;;;;;5030282;28;20223;-86
2021/03/08 12:24:45;;;;;;;16.10;13.65;;;7.40;52.50;;;;;;5036311;28;20223;-86
2021/03/08 12:27:11;;;;;;;17.00;13.80;;;7.30;51.20;;;;;;5031549;28;20531;-87
2021/03/08 12:29:39;;;;;;;16.52;13.40;;;7.00;50.60;;;;;;5044136;28;20258;-86
2021/03/08 12:32:06;;;;;;;14.65;12.10;;;6.80;51.20;;;;;;5050167;28;20254;-86
2021/03/08 12:34:33;;;;;;;13.43;12.05;;;6.30;50.10;;;;;;5044599;28;20255;-86
2021/03/08 12:36:59;;;;;;;14.15;12.45;;;6.30;50.80;;;;;;5043668;28;20207;-87
2021/03/08 12:39:26;;;;;;;15.93;13.45;;;6.60;50.80;;;;;;5034549;28;20270;-86
2021/03/08 12:41:52;;;;;;;16.15;13.65;;;6.80;51.50;;;;;;5030158;28;20220;-86
2021/03/08 12:44:19;;;;;;;17.15;12.80;;;6.90;50.40;;;;;;5043406;28;20544;-86
2021/03/08 12:46:47;;;;;;;15.25;12.43;;;7.10;50.60;;;;;;5035098;28;20204;-86
2021/03/08 12:49:13;;;;;;;15.82;13.55;;;7.20;50.10;;;;;;5042202;28;20666;-86
2021/03/08 12:51:40;;;;;;;16.20;13.45;;;6.70;49.30;;;;;;5044931;28;20251;-86
2021/03/08 12:54:06;;;;;;;16.15;12.15;;;6.70;50.80;;;;;;5040324;28;20200;-86